createdAt,value
2018-08-25T00:00:59.343Z,55.53
2018-08-25T00:03:32.817Z,55.63
2018-08-25T00:06:08.379Z,55.79
2018-08-25T00:08:41.104Z,56.05
2018-08-25T00:11:14.224Z,56.10
2018-08-25T00:13:47.147Z,56.28
2018-08-25T00:16:19.681Z,56.23
2018-08-25T00:18:53.961Z,56.27
2018-08-25T00:21:26.887Z,56.33
2018-08-25T00:23:59.500Z,56.54
2018-08-25T00:26:32.025Z,56.84
2018-08-25T00:29:04.806Z,57.00
2018-08-25T00:31:37.843Z,56.98
2018-08-25T00:34:11.269Z,57.01
2018-08-25T00:36:44.940Z,57.00
2018-08-25T00:39:18.214Z,56.84
2018-08-25T00:41:51.692Z,56.71
2018-08-25T00:44:25.453Z,56.67
2018-08-25T00:46:57.933Z,56.38
2018-08-25T00:49:30.407Z,56.39
2018-08-25T00:52:03.393Z,56.38
2018-08-25T00:54:36.681Z,56.48
2018-08-25T00:57:09.737Z,56.65
2018-08-25T00:59:43.655Z,56.80
2018-08-25T01:02:16.340Z,56.97
2018-08-25T01:04:50.900Z,57.12
2018-08-25T01:07:23.920Z,57.33
2018-08-25T01:09:56.545Z,57.43
2018-08-25T01:12:29.037Z,57.55
2018-08-25T01:15:03.389Z,57.57
2018-08-25T01:17:36.194Z,57.54
2018-08-25T01:20:08.789Z,57.50
2018-08-25T01:22:42.969Z,57.70
2018-08-25T01:25:16.530Z,57.77
2018-08-25T01:27:49.081Z,57.82
2018-08-25T01:30:23.349Z,57.82
2018-08-25T01:32:56.607Z,57.86
2018-08-25T01:35:30.976Z,57.89
2018-08-25T01:38:06.424Z,57.85
2018-08-25T01:40:39.461Z,57.76
2018-08-25T01:43:12.411Z,57.66
2018-08-25T01:45:45.826Z,57.58
2018-08-25T01:48:18.387Z,57.58
2018-08-25T01:50:51.534Z,57.50
2018-08-25T01:53:24.420Z,57.53
2018-08-25T01:55:56.922Z,57.57
2018-08-25T01:58:29.840Z,57.54
2018-08-25T02:01:02.960Z,57.48
2018-08-25T02:03:35.645Z,57.48
2018-08-25T02:06:08.532Z,57.46
2018-08-25T02:08:42.253Z,57.42
2018-08-25T02:11:15.812Z,57.28
2018-08-25T02:13:48.273Z,57.43
2018-08-25T02:16:21.712Z,57.48
2018-08-25T02:18:54.939Z,57.29
2018-08-25T02:21:27.417Z,57.19
2018-08-25T02:24:01.273Z,57.20
2018-08-25T02:26:33.765Z,57.24
2018-08-25T02:29:06.157Z,57.27
2018-08-25T02:31:39.788Z,57.12
2018-08-25T02:34:12.366Z,57.00
2018-08-25T02:36:44.714Z,57.01
2018-08-25T02:39:17.531Z,57.11
2018-08-25T02:41:50.101Z,57.21
2018-08-25T02:44:22.948Z,57.43
2018-08-25T02:46:55.888Z,57.54
2018-08-25T02:49:28.441Z,57.65
2018-08-25T02:52:01.488Z,57.57
2018-08-25T02:54:34.464Z,57.48
2018-08-25T02:57:06.928Z,57.56
2018-08-25T02:59:39.647Z,57.38
2018-08-25T03:02:13.417Z,57.45
2018-08-25T03:04:46.251Z,57.95
2018-08-25T03:07:18.728Z,59.71
2018-08-25T03:09:51.570Z,62.31
2018-08-25T03:12:24.049Z,64.45
2018-08-25T03:14:58.440Z,67.16
2018-08-25T03:17:31.556Z,70.41
2018-08-25T03:20:04.349Z,72.24
2018-08-25T03:22:36.896Z,75.53
2018-08-25T03:25:12.743Z,78.02
2018-08-25T03:27:45.335Z,80.13
2018-08-25T03:30:18.568Z,82.48
2018-08-25T03:32:54.396Z,83.13
2018-08-25T03:35:26.923Z,83.40
2018-08-25T03:37:59.721Z,83.99
2018-08-25T03:40:33.432Z,83.78
2018-08-25T03:43:05.908Z,85.44
2018-08-25T03:45:38.469Z,85.27
2018-08-25T03:48:11.204Z,85.54
2018-08-25T03:50:45.383Z,85.39
2018-08-25T03:53:18.032Z,85.22
2018-08-25T03:55:51.128Z,86.20
2018-08-25T03:58:24.284Z,86.61
2018-08-25T04:00:56.802Z,86.70
2018-08-25T04:03:29.625Z,87.62
2018-08-25T04:06:02.146Z,88.66
2018-08-25T04:08:34.552Z,89.59
2018-08-25T04:11:07.560Z,90.08
2018-08-25T04:13:40.118Z,90.26
2018-08-25T04:16:12.735Z,90.34
2018-08-25T04:18:46.517Z,90.38
2018-08-25T04:21:19.132Z,90.60
2018-08-25T04:23:52.368Z,90.70
2018-08-25T04:26:25.303Z,90.92
2018-08-25T04:28:58.100Z,91.09
2018-08-25T04:31:30.600Z,91.34
2018-08-25T04:34:03.630Z,91.37
2018-08-25T04:36:36.434Z,91.45
2018-08-25T04:39:10.907Z,91.61
2018-08-25T04:41:44.028Z,91.78
2018-08-25T04:44:17.057Z,91.89
2018-08-25T04:46:49.544Z,92.09
2018-08-25T04:49:23.361Z,92.37
2018-08-25T04:51:56.836Z,92.63
2018-08-25T04:54:29.296Z,92.93
2018-08-25T04:57:08.650Z,93.02
2018-08-25T04:59:42.032Z,93.00
2018-08-25T05:02:14.428Z,92.92
2018-08-25T05:04:47.246Z,92.69
2018-08-25T05:07:20.042Z,92.41
2018-08-25T05:09:52.865Z,91.93
2018-08-25T05:12:25.805Z,91.77
2018-08-25T05:14:59.904Z,91.43
2018-08-25T05:17:33.935Z,91.24
2018-08-25T05:20:07.168Z,90.30
2018-08-25T05:22:39.748Z,90.14
2018-08-25T05:25:12.108Z,90.45
2018-08-25T05:27:45.884Z,90.90
2018-08-25T05:30:18.601Z,91.19
2018-08-25T05:32:51.094Z,91.39
2018-08-25T05:35:23.845Z,91.56
2018-08-25T05:37:56.229Z,91.83
2018-08-25T05:40:28.853Z,92.23
2018-08-25T05:43:01.597Z,92.56
2018-08-25T05:45:33.996Z,92.75
2018-08-25T05:48:06.566Z,92.92
2018-08-25T05:50:40.597Z,92.92
2018-08-25T05:53:14.100Z,92.70
2018-08-25T05:55:46.564Z,92.15
2018-08-25T05:58:24.572Z,91.72
2018-08-25T06:00:57.940Z,91.37
2018-08-25T06:03:31.077Z,91.21
2018-08-25T06:06:05.400Z,91.23
2018-08-25T06:08:38.017Z,89.53
2018-08-25T06:11:10.574Z,89.68
2018-08-25T06:13:45.594Z,89.97
2018-08-25T06:16:19.549Z,90.12
2018-08-25T06:18:52.852Z,89.71
2018-08-25T06:21:28.952Z,89.54
2018-08-25T06:24:03.104Z,89.18
2018-08-25T06:26:35.720Z,88.60
2018-08-25T06:29:09.763Z,88.69
2018-08-25T06:31:42.145Z,88.04
2018-08-25T06:34:14.771Z,87.80
2018-08-25T06:36:47.595Z,87.95
2018-08-25T06:39:28.096Z,87.91
2018-08-25T06:42:00.692Z,88.07
2018-08-25T06:44:34.530Z,87.48
2018-08-25T06:47:08.733Z,87.69
2018-08-25T06:49:43.246Z,87.21
2018-08-25T06:52:16.133Z,86.90
2018-08-25T06:54:48.522Z,87.33
2018-08-25T06:57:21.847Z,87.04
2018-08-25T06:59:55.950Z,86.92
2018-08-25T07:02:28.416Z,86.72
2018-08-25T07:05:00.961Z,86.70
2018-08-25T07:07:34.204Z,86.91
2018-08-25T07:10:06.935Z,86.57
2018-08-25T07:12:39.564Z,86.12
2018-08-25T07:15:14.424Z,86.19
2018-08-25T07:17:48.452Z,85.12
2018-08-25T07:20:20.924Z,85.28
2018-08-25T07:22:56.795Z,84.53
2018-08-25T07:25:29.428Z,84.38
2018-08-25T07:28:02.861Z,83.02
2018-08-25T07:30:35.713Z,80.56
2018-08-25T07:33:09.110Z,78.35
2018-08-25T07:35:44.968Z,78.75
2018-08-25T07:38:18.920Z,80.29
2018-08-25T07:40:52.430Z,80.87
2018-08-25T07:43:25.774Z,81.19
2018-08-25T07:46:04.357Z,81.27
2018-08-25T07:48:38.747Z,81.23
2018-08-25T07:51:12.454Z,81.04
2018-08-25T07:53:48.296Z,80.98
2018-08-25T07:56:22.029Z,80.83
2018-08-25T07:58:54.553Z,80.49
2018-08-25T08:01:28.958Z,80.39
2018-08-25T08:04:01.506Z,79.99
2018-08-25T08:06:34.047Z,75.45
2018-08-25T08:09:09.969Z,74.30
2018-08-25T08:11:43.513Z,74.65
2018-08-25T08:14:18.464Z,74.74
2018-08-25T08:16:52.163Z,73.71
2018-08-25T08:19:26.654Z,73.88
2018-08-25T08:21:59.908Z,73.12
2018-08-25T08:24:33.597Z,72.50
2018-08-25T08:27:07.572Z,71.59
2018-08-25T08:29:41.380Z,72.45
2018-08-25T08:32:17.606Z,72.75
2018-08-25T08:34:52.330Z,71.81
2018-08-25T08:37:27.000Z,72.25
2018-08-25T08:40:00.763Z,72.31
2018-08-25T08:42:34.573Z,73.16
2018-08-25T08:45:09.033Z,71.78
2018-08-25T08:47:43.988Z,70.19
2018-08-25T08:50:20.488Z,68.87
2018-08-25T08:52:54.857Z,67.99
2018-08-25T08:55:28.979Z,67.13
2018-08-25T08:58:03.328Z,67.47
2018-08-25T09:00:38.831Z,67.81
2018-08-25T09:03:12.486Z,68.09
2018-08-25T09:05:46.334Z,67.82
2018-08-25T09:08:23.531Z,67.92
2018-08-25T09:10:58.697Z,66.66
2018-08-25T09:13:32.828Z,67.52
2018-08-25T09:16:06.311Z,66.71
2018-08-25T09:18:40.426Z,65.05
2018-08-25T09:21:14.488Z,64.11
2018-08-25T09:23:49.552Z,64.09
2018-08-25T09:26:23.157Z,62.93
2018-08-25T09:29:00.514Z,64.38
2018-08-25T09:31:35.979Z,63.78
2018-08-25T09:34:10.036Z,62.33
2018-08-25T09:36:45.248Z,59.52
2018-08-25T09:39:18.736Z,58.33
2018-08-25T09:41:52.576Z,59.00
2018-08-25T09:44:27.000Z,58.91
2018-08-25T09:46:59.854Z,57.35
2018-08-25T09:49:32.585Z,55.47
2018-08-25T09:52:06.755Z,55.45
2018-08-25T09:54:42.591Z,55.66
2018-08-25T09:57:20.364Z,56.60
2018-08-25T09:59:54.298Z,57.62
2018-08-25T10:02:27.557Z,57.69
2018-08-25T10:05:00.578Z,56.06
2018-08-25T10:07:34.864Z,56.19
2018-08-25T10:10:08.572Z,53.73
2018-08-25T10:12:41.082Z,54.24
2018-08-25T10:15:16.848Z,54.32
2018-08-25T10:17:50.248Z,53.49
2018-08-25T10:20:23.898Z,49.73
2018-08-25T10:22:56.746Z,50.47
2018-08-25T10:25:31.169Z,51.86
2018-08-25T10:28:05.337Z,50.65
2018-08-25T10:30:38.247Z,50.24
2018-08-25T10:33:10.690Z,49.61
2018-08-25T10:35:44.288Z,49.45
2018-08-25T10:38:18.263Z,50.30
2018-08-25T10:40:55.284Z,50.95
2018-08-25T10:43:28.489Z,50.01
2018-08-25T10:46:01.320Z,49.48
2018-08-25T10:48:34.902Z,49.62
2018-08-25T10:51:10.044Z,47.33
2018-08-25T10:53:43.344Z,46.47
2018-08-25T10:56:16.704Z,46.46
2018-08-25T10:58:50.129Z,46.97
2018-08-25T11:01:23.686Z,47.59
2018-08-25T11:03:57.103Z,48.62
2018-08-25T11:06:34.316Z,49.69
2018-08-25T11:09:13.353Z,50.75
2018-08-25T11:11:46.113Z,50.83
2018-08-25T11:14:20.769Z,50.51
2018-08-25T11:16:53.581Z,48.92
2018-08-25T11:19:28.312Z,50.31
2018-08-25T11:22:03.383Z,49.08
2018-08-25T11:24:36.762Z,48.87
2018-08-25T11:27:10.313Z,47.21
2018-08-25T11:29:44.191Z,47.76
2018-08-25T11:32:16.787Z,48.34
2018-08-25T11:34:53.356Z,46.01
2018-08-25T11:37:33.320Z,44.80
2018-08-25T11:40:06.098Z,46.48
2018-08-25T11:42:43.966Z,48.16
2018-08-25T11:45:16.678Z,49.55
2018-08-25T11:47:49.224Z,49.89
2018-08-25T11:50:21.754Z,48.46
2018-08-25T11:52:54.331Z,46.69
2018-08-25T11:55:27.869Z,47.25
2018-08-25T11:58:01.076Z,47.91
2018-08-25T12:00:37.322Z,49.27
2018-08-25T12:03:10.185Z,51.06
2018-08-25T12:05:44.937Z,51.68
2018-08-25T12:08:19.457Z,53.45
2018-08-25T12:10:53.035Z,54.38
2018-08-25T12:13:26.857Z,54.66
2018-08-25T12:16:01.026Z,55.35
2018-08-25T12:18:34.673Z,54.31
2018-08-25T12:21:07.751Z,52.07
2018-08-25T12:23:42.349Z,49.93
2018-08-25T12:26:17.777Z,49.87
2018-08-25T12:28:51.037Z,49.36
2018-08-25T12:31:26.750Z,49.38
2018-08-25T12:34:03.168Z,49.02
2018-08-25T12:36:38.113Z,48.64
2018-08-25T12:39:12.788Z,48.88
2018-08-25T12:41:46.318Z,49.91
2018-08-25T12:44:20.018Z,51.11
2018-08-25T12:46:53.916Z,52.29
2018-08-25T12:49:27.275Z,53.55
2018-08-25T12:52:02.604Z,52.82
2018-08-25T12:54:39.021Z,53.19
2018-08-25T12:57:13.554Z,52.17
2018-08-25T12:59:47.102Z,52.07
2018-08-25T13:02:21.829Z,51.45
2018-08-25T13:04:57.269Z,51.29
2018-08-25T13:07:30.543Z,52.21
2018-08-25T13:10:09.984Z,53.31
2018-08-25T13:12:42.436Z,53.08
2018-08-25T13:15:18.237Z,53.16
2018-08-25T13:17:51.146Z,53.19
2018-08-25T13:20:25.876Z,52.60
2018-08-25T13:22:59.687Z,51.31
2018-08-25T13:25:34.056Z,51.66
2018-08-25T13:28:18.265Z,50.74
2018-08-25T13:30:53.632Z,51.14
2018-08-25T13:33:28.190Z,50.78
2018-08-25T13:36:03.018Z,48.03
2018-08-25T13:38:38.713Z,48.66
2018-08-25T13:41:13.643Z,48.79
2018-08-25T13:43:47.806Z,49.39
2018-08-25T13:46:21.737Z,50.68
2018-08-25T13:48:57.122Z,51.65
2018-08-25T13:51:30.064Z,52.01
2018-08-25T13:54:04.149Z,51.96
2018-08-25T13:56:54.611Z,46.63
2018-08-25T13:59:34.832Z,44.97
2018-08-25T14:02:16.289Z,44.93
2018-08-25T14:04:50.958Z,43.90
2018-08-25T14:07:25.534Z,44.89
2018-08-25T14:10:06.383Z,44.86
2018-08-25T14:12:41.219Z,46.76
2018-08-25T14:15:15.273Z,47.28
2018-08-25T14:17:49.873Z,46.66
2018-08-25T14:20:23.313Z,45.96
2018-08-25T14:22:59.376Z,45.98
2018-08-25T14:25:33.240Z,45.97
2018-08-25T14:28:08.823Z,45.55
2018-08-25T14:30:42.747Z,46.98
2018-08-25T14:33:19.266Z,46.54
2018-08-25T14:35:55.677Z,47.31
2018-08-25T14:38:31.424Z,47.67
2018-08-25T14:41:04.434Z,46.60
2018-08-25T14:43:36.964Z,45.32
2018-08-25T14:46:11.470Z,45.04
2018-08-25T14:48:46.130Z,45.95
2018-08-25T14:51:18.645Z,45.71
2018-08-25T14:53:51.469Z,45.44
2018-08-25T14:56:27.397Z,45.22
2018-08-25T14:59:08.524Z,44.97
2018-08-25T15:01:42.790Z,44.46
2018-08-25T15:04:17.358Z,44.92
2018-08-25T15:06:51.433Z,45.63
2018-08-25T15:09:28.376Z,46.25
2018-08-25T15:12:02.987Z,46.79
2018-08-25T15:14:38.686Z,48.38
2018-08-25T15:17:13.369Z,49.74
2018-08-25T15:19:49.645Z,51.68
2018-08-25T15:22:25.971Z,52.99
2018-08-25T15:25:01.491Z,55.89
2018-08-25T15:27:36.900Z,57.13
2018-08-25T15:30:16.301Z,59.06
2018-08-25T15:32:49.589Z,60.04
2018-08-25T15:35:22.041Z,60.57
2018-08-25T15:37:58.216Z,60.16
2018-08-25T15:40:33.586Z,59.24
2018-08-25T15:43:07.761Z,55.41
2018-08-25T15:45:42.313Z,55.87
2018-08-25T15:48:34.493Z,55.08
2018-08-25T15:51:18.713Z,53.33
2018-08-25T15:53:53.049Z,52.46
2018-08-25T15:56:27.272Z,52.10
2018-08-25T16:01:25.342Z,50.65
2018-08-25T16:04:00.207Z,50.32
2018-08-25T16:06:33.762Z,50.04
2018-08-25T16:09:09.816Z,49.47
2018-08-25T16:11:45.520Z,49.14
2018-08-25T16:14:39.828Z,50.14
2018-08-25T16:17:21.565Z,48.66
2018-08-25T16:19:55.203Z,48.80
2018-08-25T16:22:30.893Z,47.74
2018-08-25T16:25:06.544Z,47.13
2018-08-25T16:27:39.829Z,46.59
2018-08-25T16:30:15.141Z,44.78
2018-08-25T16:32:48.609Z,44.60
2018-08-25T16:35:21.620Z,44.12
2018-08-25T16:37:55.704Z,45.78
2018-08-25T16:40:36.417Z,46.57
2018-08-25T16:43:12.719Z,46.92
2018-08-25T16:45:55.289Z,46.87
2018-08-25T16:48:28.558Z,46.56
2018-08-25T16:51:02.319Z,45.95
2018-08-25T16:53:36.240Z,45.18
2018-08-25T16:56:09.717Z,44.72
2018-08-25T16:58:44.786Z,44.46
2018-08-25T17:01:19.800Z,44.65
2018-08-25T17:03:55.482Z,44.63
2018-08-25T17:06:29.683Z,44.97
2018-08-25T17:09:07.783Z,45.70
2018-08-25T17:11:41.356Z,46.52
2018-08-25T17:14:15.208Z,47.11
2018-08-25T17:16:51.232Z,47.95
2018-08-25T17:19:25.641Z,48.33
2018-08-25T17:21:58.281Z,48.75
2018-08-25T17:24:35.190Z,49.71
2018-08-25T17:27:09.045Z,50.39
2018-08-25T17:29:45.365Z,51.24
2018-08-25T17:32:18.565Z,51.74
2018-08-25T17:34:51.813Z,52.61
2018-08-25T17:37:25.579Z,52.75
2018-08-25T17:40:05.632Z,53.12
2018-08-25T17:42:47.341Z,53.97
2018-08-25T17:45:28.401Z,54.26
2018-08-25T17:48:05.759Z,54.94
2018-08-25T17:50:57.777Z,55.34
2018-08-25T17:53:45.138Z,55.70
2018-08-25T17:56:24.595Z,56.35
2018-08-25T17:59:04.167Z,56.55
2018-08-25T18:01:38.778Z,57.38
2018-08-25T18:04:14.850Z,59.35
2018-08-25T18:06:52.045Z,61.51
2018-08-25T18:09:33.675Z,63.95
2018-08-25T18:12:11.067Z,65.94
2018-08-25T18:14:48.154Z,66.60
2018-08-25T18:17:34.766Z,67.44
2018-08-25T18:20:11.274Z,69.12
2018-08-25T18:22:48.440Z,69.74
2018-08-25T18:25:21.257Z,70.44
2018-08-25T18:28:01.887Z,70.51
2018-08-25T18:30:35.757Z,71.44
2018-08-25T18:33:11.397Z,71.19
2018-08-25T18:35:45.467Z,71.45
2018-08-25T18:38:18.216Z,72.04
2018-08-25T18:40:51.422Z,72.71
2018-08-25T18:43:23.990Z,72.56
2018-08-25T18:46:00.006Z,72.83
2018-08-25T18:48:33.619Z,72.79
2018-08-25T18:51:07.105Z,73.55
2018-08-25T18:53:40.767Z,73.63
2018-08-25T18:56:14.685Z,74.12
2018-08-25T18:58:55.317Z,74.62
2018-08-25T19:01:29.267Z,74.92
2018-08-25T19:04:02.069Z,75.34
2018-08-25T19:06:36.947Z,75.68
2018-08-25T19:09:13.301Z,76.41
2018-08-25T19:11:46.669Z,77.24
2018-08-25T19:14:23.966Z,77.25
2018-08-25T19:17:00.713Z,77.68
2018-08-25T19:19:34.281Z,77.52
2018-08-25T19:22:17.963Z,77.80
2018-08-25T19:24:52.217Z,78.60
2018-08-25T19:27:25.119Z,78.63
2018-08-25T19:29:59.511Z,78.79
2018-08-25T19:32:34.653Z,78.74
2018-08-25T19:35:13.031Z,79.21
2018-08-25T19:37:49.121Z,79.57
2018-08-25T19:40:35.229Z,80.78
2018-08-25T19:43:07.774Z,80.96
2018-08-25T19:45:40.332Z,80.79
2018-08-25T19:48:13.840Z,80.87
2018-08-25T19:50:50.057Z,81.07
2018-08-25T19:53:25.329Z,81.75
2018-08-25T19:56:00.715Z,82.47
2018-08-25T19:58:41.922Z,82.46
2018-08-25T20:01:14.938Z,82.11
2018-08-25T20:03:50.710Z,82.45
2018-08-25T20:06:25.122Z,82.79
2018-08-25T20:08:58.964Z,83.01
2018-08-25T20:11:33.830Z,84.31
2018-08-25T20:14:06.824Z,84.04
2018-08-25T20:16:40.631Z,83.82
2018-08-25T20:19:15.312Z,85.09
2018-08-25T20:21:50.429Z,86.28
2018-08-25T20:24:23.530Z,86.30
2018-08-25T20:27:00.108Z,86.71
2018-08-25T20:29:34.523Z,86.71
2018-08-25T20:32:28.179Z,86.52
2018-08-25T20:35:03.647Z,86.76
2018-08-25T20:37:44.246Z,86.94
2018-08-25T20:40:17.609Z,87.09
2018-08-25T20:42:52.003Z,87.11
2018-08-25T20:45:25.943Z,87.15
2018-08-25T20:47:59.327Z,87.19
2018-08-25T20:50:43.311Z,87.70
2018-08-25T20:53:18.833Z,87.77
2018-08-25T20:55:58.646Z,87.85
2018-08-25T20:58:34.283Z,87.97
2018-08-25T21:01:07.586Z,87.88
2018-08-25T21:03:42.965Z,87.91
2018-08-25T21:06:20.469Z,87.97
2018-08-25T21:08:55.271Z,88.35
2018-08-25T21:11:38.363Z,88.10
2018-08-25T21:14:15.516Z,88.20
2018-08-25T21:16:50.837Z,87.93
2018-08-25T21:19:27.585Z,87.76
2018-08-25T21:22:05.881Z,88.08
2018-08-25T21:24:42.487Z,88.53
2018-08-25T21:27:16.230Z,88.84
2018-08-25T21:29:48.796Z,88.97
2018-08-25T21:32:22.208Z,88.93
2018-08-25T21:34:55.233Z,88.93
2018-08-25T21:37:27.810Z,89.00
2018-08-25T21:40:04.700Z,89.13
2018-08-25T21:42:37.872Z,89.01
2018-08-25T21:45:13.425Z,89.75
2018-08-25T21:47:47.540Z,90.12
2018-08-25T21:50:26.177Z,90.38
2018-08-25T21:53:00.933Z,90.73
2018-08-25T21:55:35.728Z,90.67
2018-08-25T21:58:10.888Z,90.55
2018-08-25T22:00:50.869Z,90.18
2018-08-25T22:03:45.357Z,89.90
2018-08-25T22:06:17.838Z,90.09
2018-08-25T22:09:01.136Z,90.35
2018-08-25T22:11:38.624Z,90.53
2018-08-25T22:14:12.185Z,90.62
2018-08-25T22:16:48.019Z,90.98
2018-08-25T22:19:25.604Z,91.40
2018-08-25T22:21:59.636Z,91.36
2018-08-25T22:24:35.842Z,91.36
2018-08-25T22:27:11.544Z,91.08
2018-08-25T22:29:45.920Z,91.03
2018-08-25T22:32:20.601Z,91.17
2018-08-25T22:34:55.398Z,90.99
2018-08-25T22:37:27.999Z,90.97
2018-08-25T22:40:03.320Z,91.04
2018-08-25T22:42:36.597Z,91.00
2018-08-25T22:45:12.349Z,91.08
2018-08-25T22:47:49.325Z,90.90
2018-08-25T22:50:22.669Z,90.72
2018-08-25T22:52:58.587Z,90.96
2018-08-25T22:55:32.907Z,91.02
2018-08-25T22:58:08.450Z,91.07
2018-08-25T23:00:47.029Z,90.73
2018-08-25T23:03:21.589Z,90.40
2018-08-25T23:05:54.221Z,90.58
2018-08-25T23:08:29.171Z,90.56
2018-08-25T23:11:03.348Z,90.60
2018-08-25T23:13:37.351Z,90.65
2018-08-25T23:16:13.224Z,90.80
2018-08-25T23:18:46.631Z,90.76
2018-08-25T23:21:20.146Z,90.90
2018-08-25T23:23:54.708Z,91.02
2018-08-25T23:26:28.259Z,91.04
2018-08-25T23:29:00.947Z,90.90
2018-08-25T23:31:33.697Z,90.97
2018-08-25T23:34:11.000Z,91.07
2018-08-25T23:36:44.201Z,91.22
2018-08-25T23:39:19.036Z,91.29
2018-08-25T23:41:53.288Z,90.99
2018-08-25T23:46:15.313Z,90.99
2018-08-25T23:48:48.210Z,91.03
2018-08-25T23:51:21.693Z,91.38
2018-08-25T23:53:55.150Z,91.49
2018-08-25T23:56:33.135Z,91.52
2018-08-25T23:59:05.960Z,91.39
